createdAt,value
2023-08-21T00:00:37.070Z,10.48
2023-08-21T00:03:39.338Z,11.07
2023-08-21T00:06:41.579Z,9.50
2023-08-21T00:09:43.840Z,9.27
2023-08-21T00:12:46.084Z,9.15
2023-08-21T00:15:48.547Z,11.18
2023-08-21T00:18:50.777Z,8.23
2023-08-21T00:21:53.012Z,9.48
2023-08-21T00:24:55.192Z,9.90
2023-08-21T00:27:57.389Z,10.83
2023-08-21T00:31:06.615Z,9.45
2023-08-21T00:34:08.888Z,8.63
2023-08-21T00:37:12.145Z,7.83
2023-08-21T00:40:14.703Z,8.60
2023-08-21T00:43:17.000Z,9.02
2023-08-21T00:46:19.248Z,10.27
2023-08-21T00:49:22.039Z,9.70
2023-08-21T00:52:24.442Z,9.40
2023-08-21T00:55:26.764Z,9.00
2023-08-21T00:58:29.018Z,7.50
2023-08-21T01:01:31.532Z,9.65
2023-08-21T01:04:33.824Z,7.32
2023-08-21T01:07:41.913Z,8.67
2023-08-21T01:11:10.289Z,8.30
2023-08-21T01:14:24.510Z,7.25
2023-08-21T01:17:26.914Z,8.68
2023-08-21T01:20:29.518Z,8.57
2023-08-21T01:23:36.054Z,8.55
2023-08-21T01:26:38.228Z,8.93
2023-08-21T01:29:40.743Z,7.73
2023-08-21T01:33:07.024Z,7.60
2023-08-21T01:36:12.191Z,9.10
2023-08-21T01:39:14.624Z,8.93
2023-08-21T01:42:16.819Z,7.78
2023-08-21T01:45:19.126Z,7.80
2023-08-21T01:48:21.370Z,7.70
2023-08-21T01:51:23.708Z,8.65
2023-08-21T01:54:25.988Z,9.18
2023-08-21T01:57:28.207Z,8.00
2023-08-21T02:00:30.439Z,8.10
2023-08-21T02:03:32.746Z,8.15
2023-08-21T02:06:35.014Z,9.80
2023-08-21T02:09:37.208Z,8.13
2023-08-21T02:12:41.458Z,9.80
2023-08-21T02:15:44.880Z,8.30
2023-08-21T02:18:47.521Z,10.23
2023-08-21T02:21:49.725Z,9.25
2023-08-21T02:24:51.932Z,8.55
2023-08-21T02:27:57.556Z,7.00
2023-08-21T02:31:00.687Z,10.50
2023-08-21T02:34:02.924Z,7.47
2023-08-21T02:37:06.210Z,7.47
2023-08-21T02:40:09.766Z,8.63
2023-08-21T02:43:12.039Z,8.15
2023-08-21T02:46:14.405Z,7.28
2023-08-21T02:49:16.614Z,8.38
2023-08-21T02:52:19.134Z,8.50
2023-08-21T02:55:21.974Z,10.25
2023-08-21T02:58:24.297Z,10.57
2023-08-21T03:01:26.531Z,7.93
2023-08-21T03:04:28.757Z,7.60
2023-08-21T03:07:30.978Z,7.60
2023-08-21T03:10:34.961Z,9.50
2023-08-21T03:13:37.186Z,11.27
2023-08-21T03:16:39.443Z,8.40
2023-08-21T03:19:41.813Z,8.48
2023-08-21T03:22:44.339Z,8.65
2023-08-21T03:25:46.656Z,7.57
2023-08-21T03:28:48.945Z,14.30
2023-08-21T03:31:51.490Z,8.03
2023-08-21T03:34:53.732Z,8.70
2023-08-21T03:37:56.343Z,9.40
2023-08-21T03:41:00.038Z,10.63
2023-08-21T03:44:02.482Z,9.25
2023-08-21T03:47:04.800Z,11.02
2023-08-21T03:50:10.670Z,8.48
2023-08-21T03:53:13.162Z,9.40
2023-08-21T03:56:15.412Z,11.55
2023-08-21T03:59:17.653Z,10.18
2023-08-21T04:02:19.838Z,9.63
2023-08-21T04:05:22.071Z,8.82
2023-08-21T04:08:24.321Z,10.18
2023-08-21T04:11:26.923Z,8.37
2023-08-21T04:14:29.116Z,9.48
2023-08-21T04:17:31.362Z,9.85
2023-08-21T04:20:33.684Z,10.50
2023-08-21T04:23:35.895Z,10.57
2023-08-21T04:26:38.157Z,9.07
2023-08-21T04:29:40.745Z,23.02
2023-08-21T04:32:43.437Z,24.77
2023-08-21T04:35:45.681Z,12.70
2023-08-21T04:38:48.104Z,13.43
2023-08-21T04:41:50.805Z,9.80
2023-08-21T04:44:54.576Z,12.63
2023-08-21T04:47:58.560Z,10.23
2023-08-21T04:51:01.510Z,10.00
2023-08-21T04:54:03.954Z,9.50
2023-08-21T04:57:07.029Z,11.43
2023-08-21T05:00:10.892Z,9.20
2023-08-21T05:03:16.510Z,8.93
2023-08-21T05:06:21.043Z,9.55
2023-08-21T05:09:23.412Z,11.68
2023-08-21T05:12:27.099Z,11.67
2023-08-21T05:15:29.310Z,7.80
2023-08-21T05:18:31.869Z,8.80
2023-08-21T05:21:34.151Z,8.32
2023-08-21T05:24:36.497Z,11.23
2023-08-21T05:27:41.208Z,10.75
2023-08-21T05:30:43.377Z,10.20
2023-08-21T05:33:46.337Z,9.23
2023-08-21T05:36:49.979Z,8.88
2023-08-21T05:39:52.452Z,9.85
2023-08-21T05:42:54.697Z,15.33
2023-08-21T05:45:57.200Z,9.68
2023-08-21T05:48:59.914Z,8.52
2023-08-21T05:52:02.195Z,9.13
2023-08-21T05:55:05.866Z,8.95
2023-08-21T05:58:08.694Z,9.82
2023-08-21T06:01:10.988Z,10.63
2023-08-21T06:04:13.472Z,10.23
2023-08-21T06:07:18.508Z,11.48
2023-08-21T06:10:20.840Z,8.65
2023-08-21T06:13:23.200Z,8.93
2023-08-21T06:16:29.292Z,8.10
2023-08-21T06:19:31.560Z,9.20
2023-08-21T06:22:33.900Z,8.20
2023-08-21T06:25:36.226Z,11.52
2023-08-21T06:28:38.715Z,8.23
2023-08-21T06:31:40.994Z,9.90
2023-08-21T06:34:43.215Z,10.37
2023-08-21T06:37:45.441Z,9.10
2023-08-21T06:40:47.717Z,8.57
2023-08-21T06:43:49.954Z,9.77
2023-08-21T06:46:54.362Z,11.20
2023-08-21T06:49:56.660Z,7.97
2023-08-21T06:52:58.848Z,9.93
2023-08-21T06:56:01.327Z,9.75
2023-08-21T06:59:03.694Z,9.05
2023-08-21T07:02:06.701Z,10.82
2023-08-21T07:05:11.958Z,9.00
2023-08-21T07:08:14.932Z,9.52
2023-08-21T07:11:18.382Z,11.20
2023-08-21T07:14:20.824Z,8.60
2023-08-21T07:17:23.040Z,7.95
2023-08-21T07:20:25.300Z,8.43
2023-08-21T07:23:27.574Z,8.52
2023-08-21T07:26:30.010Z,8.35
2023-08-21T07:29:32.226Z,8.85
2023-08-21T07:32:34.500Z,10.40
2023-08-21T07:35:37.191Z,9.10
2023-08-21T07:38:46.258Z,9.48
2023-08-21T07:51:27.114Z,9.98
2023-08-21T07:54:29.408Z,9.38
2023-08-21T07:57:31.759Z,8.65
2023-08-21T08:00:34.063Z,10.20
2023-08-21T08:03:36.586Z,9.23
2023-08-21T08:06:39.357Z,8.20
2023-08-21T08:09:44.455Z,8.33
2023-08-21T08:12:46.688Z,8.30
2023-08-21T08:15:49.038Z,11.52
2023-08-21T08:18:51.387Z,9.90
2023-08-21T08:21:53.735Z,11.57
2023-08-21T08:24:55.976Z,9.35
2023-08-21T08:27:58.246Z,9.38
2023-08-21T08:31:01.522Z,9.03
2023-08-21T08:34:03.814Z,10.27
2023-08-21T08:37:06.010Z,9.60
2023-08-21T08:40:08.984Z,11.87
2023-08-21T08:43:13.122Z,9.18
2023-08-21T08:46:16.058Z,10.75
2023-08-21T08:49:18.696Z,11.48
2023-08-21T08:52:21.157Z,9.10
2023-08-21T08:55:23.668Z,8.93
2023-08-21T08:58:25.905Z,9.18
2023-08-21T09:01:28.390Z,8.73
2023-08-21T09:04:30.801Z,8.07
2023-08-21T09:07:33.165Z,8.98
2023-08-21T09:10:37.543Z,8.83
2023-08-21T09:13:40.152Z,9.93
2023-08-21T09:17:02.087Z,9.15
2023-08-21T09:20:11.410Z,8.20
2023-08-21T09:23:17.905Z,9.10
2023-08-21T09:26:25.929Z,9.50
2023-08-21T09:29:28.413Z,8.85
2023-08-21T09:32:30.669Z,8.43
2023-08-21T09:35:34.185Z,8.60
2023-08-21T09:38:36.735Z,11.63
2023-08-21T09:41:39.957Z,10.23
2023-08-21T09:44:44.296Z,8.25
2023-08-21T09:47:46.833Z,8.75
2023-08-21T09:50:49.134Z,9.70
2023-08-21T09:53:51.711Z,8.53
2023-08-21T09:56:54.436Z,8.95
2023-08-21T09:59:57.270Z,8.68
2023-08-21T10:03:08.639Z,9.82
2023-08-21T10:06:11.769Z,8.07
2023-08-21T10:09:14.181Z,8.98
2023-08-21T10:12:17.651Z,10.15
2023-08-21T10:15:20.366Z,8.77
2023-08-21T10:18:31.271Z,9.30
2023-08-21T10:21:37.461Z,7.82
2023-08-21T10:24:39.789Z,8.23
2023-08-21T10:27:43.748Z,8.20
2023-08-21T10:30:48.697Z,9.70
2023-08-21T10:33:50.962Z,8.00
2023-08-21T10:37:06.955Z,8.43
2023-08-21T10:40:13.345Z,7.78
2023-08-21T10:43:47.968Z,8.05
2023-08-21T10:46:53.988Z,9.43
2023-08-21T10:50:01.441Z,8.13
2023-08-21T10:53:03.849Z,8.07
2023-08-21T10:56:11.294Z,8.85
2023-08-21T10:59:51.659Z,9.02
2023-08-21T11:02:56.790Z,11.80
2023-08-21T11:06:08.218Z,9.45
2023-08-21T11:09:14.248Z,10.33
2023-08-21T11:12:19.225Z,9.88
2023-08-21T11:15:23.748Z,8.15
2023-08-21T11:18:38.972Z,8.47
2023-08-21T11:21:41.225Z,9.65
2023-08-21T11:24:44.419Z,8.38
2023-08-21T11:27:46.840Z,8.30
2023-08-21T11:30:49.779Z,8.13
2023-08-21T11:33:52.441Z,8.68
2023-08-21T11:36:54.766Z,8.68
2023-08-21T11:39:59.208Z,8.20
2023-08-21T11:43:02.590Z,8.18
2023-08-21T11:46:06.309Z,8.48
2023-08-21T11:49:08.570Z,7.95
2023-08-21T11:52:12.458Z,7.83
2023-08-21T11:55:14.635Z,8.27
2023-08-21T11:58:19.314Z,7.65
2023-08-21T12:01:22.235Z,7.80
2023-08-21T12:04:25.691Z,9.05
2023-08-21T12:07:27.947Z,8.93
2023-08-21T12:10:30.683Z,9.68
2023-08-21T12:13:35.512Z,9.20
2023-08-21T12:16:38.664Z,8.55
2023-08-21T12:19:41.053Z,7.72
2023-08-21T12:22:45.894Z,9.38
2023-08-21T12:25:48.110Z,8.10
2023-08-21T12:28:51.118Z,8.88
2023-08-21T12:31:53.490Z,7.57
2023-08-21T12:34:55.736Z,9.83
2023-08-21T12:37:59.422Z,9.38
2023-08-21T12:41:03.841Z,7.43
2023-08-21T12:44:09.701Z,8.32
2023-08-21T12:47:11.916Z,7.53
2023-08-21T12:50:14.609Z,7.43
2023-08-21T12:53:16.988Z,7.75
2023-08-21T12:56:19.417Z,9.05
2023-08-21T12:59:21.669Z,8.25
2023-08-21T13:02:24.438Z,7.68
2023-08-21T13:05:27.324Z,7.97
2023-08-21T13:08:29.497Z,7.57
2023-08-21T13:11:31.858Z,6.72
2023-08-21T13:14:34.050Z,8.13
2023-08-21T13:17:36.829Z,7.22
2023-08-21T13:20:39.176Z,7.78
2023-08-21T13:23:41.383Z,6.57
2023-08-21T13:26:43.659Z,6.63
2023-08-21T13:29:47.412Z,7.17
2023-08-21T13:32:49.772Z,6.93
2023-08-21T13:35:52.051Z,5.85
2023-08-21T13:38:56.474Z,7.20
2023-08-21T13:41:58.717Z,6.10
2023-08-21T13:45:00.942Z,5.72
2023-08-21T13:48:05.178Z,6.50
2023-08-21T13:51:07.506Z,8.53
2023-08-21T13:54:09.754Z,5.65
2023-08-21T13:57:12.042Z,5.35
2023-08-21T14:00:14.753Z,7.60
2023-08-21T14:03:17.081Z,7.30
2023-08-21T14:06:19.436Z,7.30
2023-08-21T14:09:21.690Z,6.82
2023-08-21T14:12:23.936Z,5.28
2023-08-21T14:15:26.283Z,6.90
2023-08-21T14:18:28.560Z,6.57
2023-08-21T14:21:31.016Z,6.07
2023-08-21T14:24:33.671Z,5.40
2023-08-21T14:27:36.266Z,5.68
2023-08-21T14:30:38.938Z,5.93
2023-08-21T14:33:41.176Z,8.45
2023-08-21T14:36:43.681Z,5.95
2023-08-21T14:39:45.868Z,6.78
2023-08-21T14:42:48.066Z,5.75
2023-08-21T14:45:50.373Z,6.20
2023-08-21T14:48:55.685Z,7.43
2023-08-21T14:51:57.896Z,6.65
2023-08-21T14:55:00.211Z,5.40
2023-08-21T14:58:08.204Z,5.35
2023-08-21T15:01:11.723Z,5.28
2023-08-21T15:04:14.010Z,5.18
2023-08-21T15:07:16.248Z,6.87
2023-08-21T15:10:18.484Z,5.05
2023-08-21T15:13:20.799Z,4.97
2023-08-21T15:16:23.122Z,5.13
2023-08-21T15:19:25.451Z,6.40
2023-08-21T15:22:27.736Z,6.35
2023-08-21T15:25:30.007Z,6.75
2023-08-21T15:28:32.208Z,6.05
2023-08-21T15:31:34.529Z,5.28
2023-08-21T15:34:36.765Z,5.68
2023-08-21T15:37:38.983Z,5.22
2023-08-21T15:40:44.973Z,4.90
2023-08-21T15:43:47.487Z,5.38
2023-08-21T15:46:50.054Z,5.10
2023-08-21T15:49:52.326Z,5.30
2023-08-21T15:52:54.579Z,7.67
2023-08-21T15:55:56.792Z,6.32
2023-08-21T15:58:59.028Z,5.22
2023-08-21T16:02:01.246Z,5.15
2023-08-21T16:05:05.282Z,5.18
2023-08-21T16:08:07.669Z,5.30
2023-08-21T16:11:10.028Z,5.25
2023-08-21T16:14:14.200Z,6.17
2023-08-21T16:17:17.866Z,5.88
2023-08-21T16:20:20.293Z,5.32
2023-08-21T16:23:22.552Z,5.75
2023-08-21T16:26:25.045Z,4.88
2023-08-21T16:29:27.340Z,7.28
2023-08-21T16:32:29.618Z,6.63
2023-08-21T16:35:31.819Z,5.87
2023-08-21T16:38:34.382Z,5.13
2023-08-21T16:41:36.596Z,5.63
2023-08-21T16:44:38.818Z,5.73
2023-08-21T16:47:41.407Z,7.40
2023-08-21T16:50:43.691Z,4.97
2023-08-21T16:53:45.965Z,6.03
2023-08-21T16:56:48.187Z,5.80
2023-08-21T16:59:50.620Z,5.15
2023-08-21T17:02:53.118Z,6.57
2023-08-21T17:05:55.408Z,5.43
2023-08-21T17:08:57.694Z,5.78
2023-08-21T17:11:59.893Z,5.72
2023-08-21T17:15:04.300Z,5.25
2023-08-21T17:18:06.934Z,5.88
2023-08-21T17:21:09.147Z,6.90
2023-08-21T17:24:11.341Z,6.72
2023-08-21T17:27:13.533Z,6.07
2023-08-21T17:30:15.919Z,5.20
2023-08-21T17:33:18.145Z,6.15
2023-08-21T17:36:20.372Z,5.53
2023-08-21T17:39:22.622Z,6.00
2023-08-21T17:42:24.869Z,6.97
2023-08-21T17:45:27.019Z,6.30
2023-08-21T17:48:29.426Z,8.65
2023-08-21T17:51:31.636Z,10.27
2023-08-21T17:54:33.856Z,10.35
2023-08-21T17:57:37.880Z,13.93
2023-08-21T18:00:40.898Z,15.40
2023-08-21T18:03:43.411Z,43.83
2023-08-21T18:06:45.642Z,83.18
2023-08-21T18:09:47.824Z,84.65
2023-08-21T18:12:50.045Z,81.90
2023-08-21T18:15:52.396Z,45.65
2023-08-21T18:18:54.593Z,29.43
2023-08-21T18:21:56.817Z,24.23
2023-08-21T18:24:59.030Z,23.70
2023-08-21T18:28:01.271Z,19.55
2023-08-21T18:31:04.050Z,17.07
2023-08-21T18:34:06.342Z,12.60
2023-08-21T18:37:09.679Z,13.13
2023-08-21T18:40:12.414Z,13.50
2023-08-21T18:43:14.691Z,13.13
2023-08-21T18:46:17.856Z,13.38
2023-08-21T18:49:20.083Z,13.15
2023-08-21T18:52:22.296Z,14.43
2023-08-21T18:55:24.479Z,12.60
2023-08-21T18:58:26.676Z,13.02
2023-08-21T19:01:29.023Z,12.63
2023-08-21T19:04:31.873Z,10.60
2023-08-21T19:07:34.000Z,10.95
2023-08-21T19:10:36.631Z,9.13
2023-08-21T19:13:39.015Z,11.00
2023-08-21T19:16:41.487Z,10.38
2023-08-21T19:19:43.839Z,12.73
2023-08-21T19:22:46.047Z,12.17
2023-08-21T19:25:48.231Z,15.65
2023-08-21T19:28:50.526Z,10.18
2023-08-21T19:31:52.757Z,14.40
2023-08-21T19:34:56.761Z,12.68
2023-08-21T19:37:58.997Z,13.07
2023-08-21T19:41:01.212Z,11.75
2023-08-21T19:44:03.622Z,13.88
2023-08-21T19:47:06.028Z,14.65
2023-08-21T19:50:08.633Z,13.63
2023-08-21T19:53:10.856Z,11.03
2023-08-21T19:56:13.089Z,13.95
2023-08-21T19:59:15.324Z,13.55
2023-08-21T20:02:17.596Z,11.73
2023-08-21T20:05:19.861Z,13.35
2023-08-21T20:08:24.620Z,9.50
2023-08-21T20:11:28.484Z,11.60
2023-08-21T20:14:30.754Z,13.02
2023-08-21T20:17:33.657Z,11.38
2023-08-21T20:20:35.905Z,14.27
2023-08-21T20:23:38.159Z,12.57
2023-08-21T20:26:40.351Z,12.68
2023-08-21T20:29:42.588Z,11.55
2023-08-21T20:32:45.152Z,15.00
2023-08-21T20:35:47.450Z,12.40
2023-08-21T20:38:50.326Z,15.88
2023-08-21T20:41:52.538Z,12.25
2023-08-21T20:44:54.848Z,12.23
2023-08-21T20:47:57.145Z,12.77
2023-08-21T20:50:59.548Z,15.27
2023-08-21T20:54:01.822Z,12.27
2023-08-21T20:57:04.455Z,12.85
2023-08-21T21:00:10.014Z,14.05
2023-08-21T21:03:12.286Z,17.13
2023-08-21T21:06:14.556Z,10.90
2023-08-21T21:09:16.740Z,13.60
2023-08-21T21:12:19.111Z,11.25
2023-08-21T21:15:21.325Z,14.13
2023-08-21T21:18:23.512Z,11.68
2023-08-21T21:21:25.903Z,13.68
2023-08-21T21:24:29.665Z,14.77
2023-08-21T21:27:32.190Z,12.07
2023-08-21T21:30:34.461Z,12.52
2023-08-21T21:33:36.687Z,14.07
2023-08-21T21:36:43.476Z,16.13
2023-08-21T21:39:45.706Z,14.20
2023-08-21T21:42:47.898Z,12.20
2023-08-21T21:45:59.577Z,12.50
2023-08-21T21:49:03.697Z,11.68
2023-08-21T21:52:05.943Z,12.18
2023-08-21T21:55:09.329Z,13.13
2023-08-21T21:58:11.569Z,12.93
2023-08-21T22:01:13.934Z,16.98
2023-08-21T22:04:16.186Z,13.20
2023-08-21T22:07:18.461Z,14.20
2023-08-21T22:10:20.677Z,13.80
2023-08-21T22:13:23.032Z,13.93
2023-08-21T22:16:25.310Z,14.02
2023-08-21T22:19:27.543Z,12.07
2023-08-21T22:22:29.763Z,12.65
2023-08-21T22:25:32.183Z,13.37
2023-08-21T22:28:34.342Z,10.13
2023-08-21T22:31:42.534Z,14.05
2023-08-21T22:34:46.570Z,12.57
2023-08-21T22:37:48.822Z,12.55
2023-08-21T22:40:51.032Z,13.75
2023-08-21T22:43:53.251Z,14.90
2023-08-21T22:46:55.470Z,14.43
2023-08-21T22:50:00.187Z,10.48
2023-08-21T22:53:05.240Z,10.30
2023-08-21T22:56:07.836Z,11.30
2023-08-21T22:59:11.042Z,13.32
2023-08-21T23:02:13.325Z,12.93
2023-08-21T23:05:15.695Z,12.37
2023-08-21T23:08:17.918Z,13.18
2023-08-21T23:11:20.349Z,12.85
2023-08-21T23:14:22.604Z,12.40
2023-08-21T23:17:24.941Z,12.13
2023-08-21T23:20:27.206Z,14.63
2023-08-21T23:23:29.858Z,13.30
2023-08-21T23:26:32.027Z,12.27
2023-08-21T23:29:34.642Z,11.77
2023-08-21T23:32:36.832Z,11.95
2023-08-21T23:35:39.783Z,11.27
2023-08-21T23:38:42.674Z,10.70
2023-08-21T23:41:45.611Z,12.63
2023-08-21T23:44:47.806Z,9.75
2023-08-21T23:47:50.245Z,13.50
2023-08-21T23:50:52.544Z,11.50
2023-08-21T23:53:54.802Z,12.35
2023-08-21T23:56:56.972Z,12.50
2023-08-21T23:59:59.284Z,13.18
